Arden, Nevada
Current Conditions -  °F | °C
As of 7:56 AM on Saturday 25 Oct 2014 (Local Time) from KLAS Reporting Station
Few Clouds Few Clouds  
Wind Chill: 19°   Ceiling: Unl
Heat Index: 19°   Visibility: 10mi
Dew Point:   Wind: 9mph
Humidity: 37%   Direction: 210°SSW
Pressure: 30.01"   Gusts: NA
Location:  36.079°N, 115.211°W
Report Text: KLAS 251456Z 21008KT 10SM FEW250 19/04 A3001 RMK AO2 SLP142 T01940044 53009
Loading
Personal Weather Stations






























Interactive Weather Map
Tropical Storm Tracking
New forecast layout! Learn more

10-Day Weather Forecast

Advertisements
Track Severe Weather on mobile